Terminal Aerodrome Forecast
Issued by NWS Cleveland, OH

Home | Current Version | Previous Version | Text Only | Print | Product List | Glossary On
Versions: 1 2 3 4 5 6 7 8 9 10 11 12 13 14 15 16 17 18 19 20 21 22 23 24 25 26 27 28 29
600
FTUS41 KCLE 272046 AAB
TAFCLE
TAF AMD
KCLE 272046Z 2721/2824 20008KT P6SM OVC050
      TEMPO 2801/2804 OVC030
     FM281400 16008KT 5SM -SHRA OVC025 PROB30 2814/2817 4SM -SHRA
      OVC010
     FM281700 19012KT 6SM BR VCSH OVC020
     FM282100 20012G22KT P6SM OVC025=

USA.gov is the U.S. government's official web portal to all federal, state and local government web resources and services.